Time;durP1;ratioP1;P1;durP2;ratioP2;P2;SDS_P1;SDS_P2;PMS_P1;PMS_P2;Temp;Humidity;BMP_temperature;BMP_pressure;BME280_temperature;BME280_humidity;BME280_pressure;Samples;Min_cycle;Max_cycle;Signal;HPM_P1;HPM_P2
2024/02/21 00:01:07;;;;;;;118.38;70.00;;;;;;;;;;5002124;28;20427;-49
2024/02/21 00:03:33;;;;;;;119.63;70.13;;;;;;;;;;5002940;28;20030;-52
2024/02/21 00:05:59;;;;;;;114.50;72.40;;;;;;;;;;4993809;28;20380;-49
2024/02/21 00:08:26;;;;;;;118.72;69.38;;;;;;;;;;5011935;28;20022;-49
2024/02/21 00:10:52;;;;;;;103.05;62.45;;;;;;;;;;5013407;28;20391;-52
2024/02/21 00:13:18;;;;;;;95.60;61.58;;;;;;;;;;5006342;28;20026;-50
2024/02/21 00:15:44;;;;;;;108.10;66.17;;;;;;;;;;4999808;28;20072;-53
2024/02/21 00:18:11;;;;;;;95.90;58.38;;;;;;;;;;5012483;28;20041;-54
2024/02/21 00:20:37;;;;;;;96.50;60.30;;;;;;;;;;5013217;28;20014;-52
2024/02/21 00:23:03;;;;;;;104.32;65.95;;;;;;;;;;5009371;28;20505;-51
2024/02/21 00:25:29;;;;;;;93.73;61.13;;;;;;;;;;4994680;28;20105;-52
2024/02/21 00:27:55;;;;;;;118.15;71.57;;;;;;;;;;5013044;28;20030;-49
2024/02/21 00:30:22;;;;;;;89.72;59.53;;;;;;;;;;4994119;28;20029;-55
2024/02/21 00:32:48;;;;;;;97.93;63.37;;;;;;;;;;4993541;28;20026;-52
2024/02/21 00:35:15;;;;;;;84.40;55.93;;;;;;;;;;4992175;28;20109;-51
2024/02/21 00:37:41;;;;;;;91.93;58.80;;;;;;;;;;5000878;28;20129;-53
2024/02/21 00:40:07;;;;;;;86.25;57.40;;;;;;;;;;5011666;28;20041;-52
2024/02/21 00:42:33;;;;;;;82.25;52.80;;;;;;;;;;5010426;28;20026;-54
2024/02/21 00:45:00;;;;;;;81.45;55.15;;;;;;;;;;5010972;28;20064;-51
2024/02/21 00:47:26;;;;;;;94.97;60.90;;;;;;;;;;5008549;28;20026;-49
2024/02/21 00:49:52;;;;;;;93.45;60.40;;;;;;;;;;4978064;28;20475;-51
2024/02/21 00:52:18;;;;;;;88.78;60.85;;;;;;;;;;4998827;28;20104;-50
2024/02/21 00:54:44;;;;;;;89.45;55.47;;;;;;;;;;5002246;28;20593;-51
2024/02/21 00:57:11;;;;;;;73.32;50.13;;;;;;;;;;5010399;28;20029;-51
2024/02/21 00:59:37;;;;;;;78.28;51.50;;;;;;;;;;4993271;28;20324;-50
2024/02/21 01:02:04;;;;;;;81.22;51.83;;;;;;;;;;5000811;28;20037;-50
2024/02/21 01:04:30;;;;;;;89.43;59.93;;;;;;;;;;5012342;28;20487;-49
2024/02/21 01:06:56;;;;;;;99.53;62.10;;;;;;;;;;5011969;28;20077;-50
2024/02/21 01:09:22;;;;;;;91.68;61.00;;;;;;;;;;4991386;23;20056;-51
2024/02/21 01:11:49;;;;;;;98.20;64.03;;;;;;;;;;4935112;29;20111;-54
2024/02/21 01:14:15;;;;;;;107.60;68.82;;;;;;;;;;4950827;29;20080;-52
2024/02/21 01:16:41;;;;;;;98.25;66.45;;;;;;;;;;4942218;29;20484;-49
2024/02/21 01:19:08;;;;;;;101.15;66.03;;;;;;;;;;4939091;29;20106;-51
2024/02/21 01:21:34;;;;;;;109.03;69.50;;;;;;;;;;4948141;28;20031;-50
2024/02/21 01:24:00;;;;;;;116.88;70.32;;;;;;;;;;4935317;29;20031;-50
2024/02/21 01:26:26;;;;;;;122.95;75.13;;;;;;;;;;4943126;29;20039;-50
2024/02/21 01:28:52;;;;;;;114.45;71.13;;;;;;;;;;4954348;29;20073;-50
2024/02/21 01:31:19;;;;;;;106.47;67.95;;;;;;;;;;4943611;29;20037;-52
2024/02/21 01:33:45;;;;;;;99.25;64.60;;;;;;;;;;4934613;29;20063;-53
2024/02/21 01:36:11;;;;;;;86.57;56.38;;;;;;;;;;4934854;29;20054;-51
2024/02/21 01:38:38;;;;;;;88.23;57.57;;;;;;;;;;4937048;29;20020;-52
2024/02/21 01:41:04;;;;;;;92.37;60.90;;;;;;;;;;4941868;29;20031;-54
2024/02/21 01:43:30;;;;;;;80.75;54.05;;;;;;;;;;4953818;29;20035;-51
2024/02/21 01:45:57;;;;;;;87.18;53.85;;;;;;;;;;4946766;29;20035;-50
2024/02/21 01:48:23;;;;;;;;;;;;;;;;;;4937545;29;20082;-53
2024/02/21 01:50:50;;;;;;;86.38;51.45;;;;;;;;;;4935687;29;19922;-54
2024/02/21 01:53:35;;;;;;;222.90;62.85;;;;;;;;;;4945238;29;20062;-52
2024/02/21 01:56:01;;;;;;;79.40;50.90;;;;;;;;;;4953315;29;20034;-53
2024/02/21 01:58:29;;;;;;;74.57;47.85;;;;;;;;;;4945322;29;20027;-53
2024/02/21 02:00:57;;;;;;;138.65;52.72;;;;;;;;;;4946211;29;20028;-53
2024/02/21 02:03:25;;;;;;;128.80;48.50;;;;;;;;;;4945968;29;20031;-53
2024/02/21 02:05:52;;;;;;;84.32;47.17;;;;;;;;;;4953297;28;20035;-54
2024/02/21 02:08:19;;;;;;;74.65;50.00;;;;;;;;;;4935909;29;20556;-50
2024/02/21 02:10:45;;;;;;;67.35;46.65;;;;;;;;;;4934477;29;20060;-53
2024/02/21 02:13:12;;;;;;;61.88;45.28;;;;;;;;;;4938888;29;20038;-54
2024/02/21 02:15:42;;;;;;;60.80;43.13;;;;;;;;;;4946316;29;20126;-51
2024/02/21 02:18:20;;;;;;;58.35;41.72;;;;;;;;;;4950252;29;20067;-52
2024/02/21 02:20:46;;;;;;;67.10;48.20;;;;;;;;;;4943267;29;20621;-49
2024/02/21 02:23:22;;;;;;;175.50;60.57;;;;;;;;;;4948498;29;20408;-52
2024/02/21 02:25:52;;;;;;;508.38;84.50;;;;;;;;;;4943844;29;20031;-52
2024/02/21 02:28:18;;;;;;;459.23;87.43;;;;;;;;;;4947421;28;20027;-50
2024/02/21 02:30:44;;;;;;;148.30;60.38;;;;;;;;;;4939123;29;20031;-49
2024/02/21 02:33:10;;;;;;;281.98;74.43;;;;;;;;;;4951915;29;20027;-49
2024/02/21 02:35:36;;;;;;;248.52;68.07;;;;;;;;;;4952942;29;20028;-53
2024/02/21 02:38:03;;;;;;;390.10;83.53;;;;;;;;;;4950143;29;20035;-52
2024/02/21 02:40:30;;;;;;;644.80;100.50;;;;;;;;;;4950835;29;20208;-50
2024/02/21 02:42:56;;;;;;;829.28;125.40;;;;;;;;;;4944505;29;20039;-51
2024/02/21 02:45:23;;;;;;;483.83;89.30;;;;;;;;;;4934374;29;20497;-49
2024/02/21 02:47:50;;;;;;;497.92;82.45;;;;;;;;;;4933892;29;20039;-52
2024/02/21 02:50:16;;;;;;;412.87;79.50;;;;;;;;;;4939149;29;20445;-54
2024/02/21 02:52:42;;;;;;;374.08;63.70;;;;;;;;;;4933890;29;20272;-50
2024/02/21 02:55:09;;;;;;;446.55;72.72;;;;;;;;;;4948848;29;20039;-50
2024/02/21 02:57:35;;;;;;;516.77;82.23;;;;;;;;;;4946335;29;20041;-51
2024/02/21 03:00:01;;;;;;;499.25;75.78;;;;;;;;;;4940763;28;20115;-52
2024/02/21 03:02:27;;;;;;;447.25;73.72;;;;;;;;;;4951948;29;20431;-52
2024/02/21 03:04:54;;;;;;;538.17;87.28;;;;;;;;;;4950253;29;20514;-49
2024/02/21 03:07:20;;;;;;;491.70;85.38;;;;;;;;;;4937373;29;20131;-49
2024/02/21 03:09:46;;;;;;;515.17;88.43;;;;;;;;;;4938022;29;20388;-49
2024/02/21 03:12:18;;;;;;;351.45;71.80;;;;;;;;;;4949043;28;20050;-50
2024/02/21 03:14:45;;;;;;;251.75;61.00;;;;;;;;;;4956258;28;20032;-50
2024/02/21 03:17:11;;;;;;;224.07;54.67;;;;;;;;;;4941106;29;20032;-50
2024/02/21 03:19:37;;;;;;;234.25;56.10;;;;;;;;;;4938002;29;20031;-50
2024/02/21 03:22:04;;;;;;;134.63;51.50;;;;;;;;;;4952276;29;20051;-51
2024/02/21 03:24:31;;;;;;;74.22;46.85;;;;;;;;;;4955355;28;20023;-52
2024/02/21 03:26:58;;;;;;;226.45;62.05;;;;;;;;;;4954396;29;20036;-49
2024/02/21 03:29:25;;;;;;;169.00;54.95;;;;;;;;;;4956174;28;20023;-51
2024/02/21 03:31:52;;;;;;;425.33;72.65;;;;;;;;;;4940730;29;20392;-48
2024/02/21 03:34:18;;;;;;;238.63;61.67;;;;;;;;;;4944454;29;20035;-49
2024/02/21 03:36:44;;;;;;;258.02;59.22;;;;;;;;;;4933728;29;20086;-50
2024/02/21 03:39:10;;;;;;;393.02;82.05;;;;;;;;;;4951800;29;20110;-50
2024/02/21 03:41:36;;;;;;;191.27;56.55;;;;;;;;;;4944601;29;20035;-49
2024/02/21 03:44:03;;;;;;;164.18;55.95;;;;;;;;;;4956100;28;20043;-49
2024/02/21 03:46:29;;;;;;;84.95;48.28;;;;;;;;;;4944507;29;20035;-50
2024/02/21 03:48:56;;;;;;;61.37;44.33;;;;;;;;;;4936578;29;20038;-49
2024/02/21 03:51:22;;;;;;;71.22;46.70;;;;;;;;;;4936494;29;20054;-49
2024/02/21 03:53:48;;;;;;;110.38;49.17;;;;;;;;;;4937212;29;20311;-50
2024/02/21 03:56:14;;;;;;;67.93;43.22;;;;;;;;;;4945183;29;20051;-49
2024/02/21 03:58:40;;;;;;;51.72;39.70;;;;;;;;;;4935259;29;20036;-50
2024/02/21 04:01:07;;;;;;;86.00;38.55;;;;;;;;;;4937907;29;20473;-49
2024/02/21 04:03:33;;;;;;;126.90;40.80;;;;;;;;;;4947522;29;20070;-49
2024/02/21 04:06:00;;;;;;;127.90;44.60;;;;;;;;;;4947439;29;20119;-49
2024/02/21 04:08:26;;;;;;;53.33;38.42;;;;;;;;;;4954330;29;20046;-49
2024/02/21 04:10:52;;;;;;;55.90;43.78;;;;;;;;;;4949267;29;20028;-49
2024/02/21 04:13:19;;;;;;;87.60;41.90;;;;;;;;;;4945325;29;20031;-50
2024/02/21 04:15:45;;;;;;;77.23;40.30;;;;;;;;;;4948562;29;20027;-51
2024/02/21 04:18:11;;;;;;;230.45;46.60;;;;;;;;;;4936081;29;20110;-54
2024/02/21 04:20:37;;;;;;;168.30;46.13;;;;;;;;;;4943680;29;20051;-49
2024/02/21 04:23:03;;;;;;;102.32;41.60;;;;;;;;;;4954869;28;20020;-48
2024/02/21 04:25:30;;;;;;;85.23;39.73;;;;;;;;;;4946166;29;20040;-49
2024/02/21 04:27:56;;;;;;;62.50;39.90;;;;;;;;;;4935785;29;20488;-49
2024/02/21 04:30:22;;;;;;;49.92;37.38;;;;;;;;;;4936470;29;20079;-49
2024/02/21 04:32:48;;;;;;;50.22;38.45;;;;;;;;;;4955071;29;20456;-50
2024/02/21 04:35:14;;;;;;;51.60;37.83;;;;;;;;;;4948339;29;20019;-49
2024/02/21 04:37:41;;;;;;;52.17;36.90;;;;;;;;;;4935719;29;20027;-49
2024/02/21 04:40:07;;;;;;;64.05;39.20;;;;;;;;;;4941450;29;20465;-49
2024/02/21 04:42:33;;;;;;;48.60;37.25;;;;;;;;;;4954825;29;20118;-49
2024/02/21 04:44:59;;;;;;;72.68;39.80;;;;;;;;;;4954543;29;20027;-49
2024/02/21 04:47:26;;;;;;;52.45;37.63;;;;;;;;;;4937992;29;20488;-49
2024/02/21 04:49:52;;;;;;;48.80;34.55;;;;;;;;;;4953501;29;20043;-49
2024/02/21 04:52:18;;;;;;;68.22;36.53;;;;;;;;;;4954735;29;20035;-49
2024/02/21 04:54:45;;;;;;;52.42;34.53;;;;;;;;;;4941037;29;20051;-49
2024/02/21 04:57:11;;;;;;;45.40;35.75;;;;;;;;;;4954640;28;20074;-49
2024/02/21 04:59:37;;;;;;;71.90;38.92;;;;;;;;;;4954526;29;20039;-49
2024/02/21 05:02:03;;;;;;;84.43;41.15;;;;;;;;;;4954594;29;20067;-52
2024/02/21 05:04:30;;;;;;;48.23;35.87;;;;;;;;;;4954559;29;20038;-52
2024/02/21 05:06:56;;;;;;;46.17;35.10;;;;;;;;;;4937050;29;20334;-53
2024/02/21 05:09:22;;;;;;;51.53;34.50;;;;;;;;;;4954246;29;20484;-49
2024/02/21 05:11:48;;;;;;;50.15;34.38;;;;;;;;;;4953054;29;20499;-49
2024/02/21 05:14:15;;;;;;;49.47;36.37;;;;;;;;;;4954311;29;20031;-48
2024/02/21 05:16:41;;;;;;;55.67;39.60;;;;;;;;;;4954066;29;20527;-49
2024/02/21 05:19:07;;;;;;;58.38;39.03;;;;;;;;;;4954182;29;20035;-49
2024/02/21 05:21:33;;;;;;;159.93;45.50;;;;;;;;;;4954233;29;20031;-50
2024/02/21 05:24:00;;;;;;;155.75;48.78;;;;;;;;;;4954209;29;20091;-48
2024/02/21 05:26:26;;;;;;;63.45;43.72;;;;;;;;;;4936781;29;20061;-48
2024/02/21 05:28:53;;;;;;;57.33;41.30;;;;;;;;;;4952785;29;20031;-49
2024/02/21 05:31:19;;;;;;;66.45;45.70;;;;;;;;;;4953959;28;20078;-49
2024/02/21 05:33:46;;;;;;;64.85;43.47;;;;;;;;;;4952644;29;20058;-51
2024/02/21 05:36:12;;;;;;;66.38;44.15;;;;;;;;;;4953566;29;20428;-50
2024/02/21 05:38:39;;;;;;;58.47;42.28;;;;;;;;;;4953888;29;20035;-51
2024/02/21 05:41:05;;;;;;;60.35;42.78;;;;;;;;;;4953918;29;20411;-49
2024/02/21 05:43:31;;;;;;;53.00;39.67;;;;;;;;;;4953905;29;20027;-50
2024/02/21 05:45:58;;;;;;;55.67;39.00;;;;;;;;;;4953493;29;20035;-50
2024/02/21 05:48:24;;;;;;;55.85;39.08;;;;;;;;;;4953762;29;20062;-49
2024/02/21 05:50:51;;;;;;;53.38;37.00;;;;;;;;;;4953806;29;20116;-51
2024/02/21 05:53:17;;;;;;;55.07;39.27;;;;;;;;;;4953814;29;20027;-49
2024/02/21 05:55:44;;;;;;;54.33;38.50;;;;;;;;;;4953594;29;20263;-49
2024/02/21 05:58:13;;;;;;;54.25;38.90;;;;;;;;;;4953603;28;20039;-49
2024/02/21 06:00:40;;;;;;;57.33;40.58;;;;;;;;;;4953589;28;20035;-49
2024/02/21 06:03:07;;;;;;;56.97;37.33;;;;;;;;;;4953639;29;20027;-52
2024/02/21 06:05:38;;;;;;;49.00;35.17;;;;;;;;;;4953452;28;20064;-50
2024/02/21 06:08:04;;;;;;;53.00;38.78;;;;;;;;;;4952135;29;20038;-50
2024/02/21 06:10:30;;;;;;;51.33;36.67;;;;;;;;;;4953520;29;20129;-51
2024/02/21 06:12:56;;;;;;;58.90;40.75;;;;;;;;;;4936207;29;20270;-49
2024/02/21 06:15:23;;;;;;;50.45;35.72;;;;;;;;;;4953326;29;20030;-50
2024/02/21 06:17:49;;;;;;;49.83;33.40;;;;;;;;;;4952359;29;20051;-50
2024/02/21 06:20:17;;;;;;;45.38;34.47;;;;;;;;;;4953545;29;20050;-51
2024/02/21 06:22:43;;;;;;;48.42;35.75;;;;;;;;;;4953791;29;20027;-48
2024/02/21 06:25:09;;;;;;;40.90;31.38;;;;;;;;;;4953368;29;20098;-48
2024/02/21 06:27:35;;;;;;;40.20;31.20;;;;;;;;;;4953100;29;20515;-50
2024/02/21 06:30:02;;;;;;;39.67;30.40;;;;;;;;;;4953582;29;20016;-50
2024/02/21 06:32:29;;;;;;;;;;;;;;;;;;4953875;28;20020;-49
2024/02/21 06:34:55;;;;;;;37.72;30.02;;;;;;;;;;4953032;29;19911;-49
2024/02/21 06:37:21;;;;;;;48.43;33.03;;;;;;;;;;4933046;29;20039;-50
2024/02/21 06:39:47;;;;;;;42.28;33.10;;;;;;;;;;4920304;29;20480;-59
2024/02/21 06:42:14;;;;;;;42.67;32.60;;;;;;;;;;4923008;29;20131;-57
2024/02/21 06:44:40;;;;;;;42.17;31.63;;;;;;;;;;4934482;29;20423;-55
2024/02/21 06:47:08;;;;;;;43.23;32.00;;;;;;;;;;4929239;29;20381;-48
2024/02/21 06:49:34;;;;;;;61.03;33.00;;;;;;;;;;4918719;29;20507;-48
2024/02/21 06:52:01;;;;;;;40.30;31.33;;;;;;;;;;4929434;29;20028;-47
2024/02/21 06:54:27;;;;;;;40.00;32.53;;;;;;;;;;4918884;29;20136;-51
2024/02/21 06:56:53;;;;;;;42.33;32.80;;;;;;;;;;4928972;29;20055;-48
2024/02/21 06:59:19;;;;;;;41.67;33.17;;;;;;;;;;4918431;29;20039;-49
2024/02/21 07:01:46;;;;;;;48.85;34.53;;;;;;;;;;4928213;29;20032;-51
2024/02/21 07:04:12;;;;;;;58.63;38.70;;;;;;;;;;4918239;29;20507;-51
2024/02/21 07:06:39;;;;;;;66.95;40.92;;;;;;;;;;4931816;29;20040;-48
2024/02/21 07:09:05;;;;;;;65.03;38.93;;;;;;;;;;4946636;23;20039;-52
2024/02/21 07:11:31;;;;;;;82.40;41.67;;;;;;;;;;4973925;28;20034;-54
2024/02/21 07:13:57;;;;;;;82.70;42.80;;;;;;;;;;4974634;28;20041;-49
2024/02/21 07:16:23;;;;;;;67.53;40.63;;;;;;;;;;4958306;28;20034;-49
2024/02/21 07:18:50;;;;;;;56.17;39.90;;;;;;;;;;4975964;28;20050;-54
2024/02/21 07:21:16;;;;;;;63.33;41.97;;;;;;;;;;4974341;28;20643;-52
2024/02/21 07:23:43;;;;;;;67.35;40.90;;;;;;;;;;4974317;28;20571;-55
2024/02/21 07:26:09;;;;;;;63.72;42.72;;;;;;;;;;4975586;28;20387;-53
2024/02/21 07:28:35;;;;;;;63.13;40.67;;;;;;;;;;4974463;28;20103;-48
2024/02/21 07:31:01;;;;;;;59.67;38.42;;;;;;;;;;4975654;28;20050;-54
2024/02/21 07:33:27;;;;;;;50.95;39.25;;;;;;;;;;4975528;28;20109;-51
2024/02/21 07:35:54;;;;;;;52.88;39.83;;;;;;;;;;4977406;28;20031;-52
2024/02/21 07:38:20;;;;;;;67.63;40.83;;;;;;;;;;4991920;28;20035;-52
2024/02/21 07:40:46;;;;;;;54.53;40.67;;;;;;;;;;4973963;28;20467;-56
2024/02/21 07:43:12;;;;;;;59.50;44.25;;;;;;;;;;4975423;28;20047;-52
2024/02/21 07:45:39;;;;;;;61.28;42.72;;;;;;;;;;4975193;28;20039;-50
2024/02/21 07:48:06;;;;;;;59.78;42.15;;;;;;;;;;4975234;28;20038;-56
2024/02/21 07:50:32;;;;;;;57.40;41.22;;;;;;;;;;4973814;28;20104;-49
2024/02/21 07:52:58;;;;;;;64.65;43.85;;;;;;;;;;4957770;28;20545;-56
2024/02/21 07:55:25;;;;;;;56.43;40.27;;;;;;;;;;4974882;28;20030;-55
2024/02/21 07:57:51;;;;;;;56.88;42.25;;;;;;;;;;4974508;28;20093;-49
2024/02/21 08:00:19;;;;;;;59.90;42.10;;;;;;;;;;4974959;28;20041;-53
2024/02/21 08:02:46;;;;;;;55.63;42.67;;;;;;;;;;4975029;28;20026;-51
2024/02/21 08:05:13;;;;;;;61.80;43.13;;;;;;;;;;4974796;28;20030;-53
2024/02/21 08:07:39;;;;;;;62.15;44.58;;;;;;;;;;4966931;28;20047;-52
2024/02/21 08:10:08;;;;;;;58.37;43.17;;;;;;;;;;4955266;28;20066;-53
2024/02/21 08:12:34;;;;;;;67.53;45.05;;;;;;;;;;4955783;28;20396;-49
2024/02/21 08:15:00;;;;;;;61.07;44.03;;;;;;;;;;4954243;29;20031;-53
2024/02/21 08:17:27;;;;;;;60.35;43.85;;;;;;;;;;4955108;29;20258;-50
2024/02/21 08:19:53;;;;;;;56.53;43.30;;;;;;;;;;4954244;28;20102;-51
2024/02/21 08:22:19;;;;;;;64.63;46.40;;;;;;;;;;4955150;29;20039;-50
2024/02/21 08:24:46;;;;;;;56.28;40.47;;;;;;;;;;4958956;28;20062;-54
2024/02/21 08:27:12;;;;;;;59.45;44.80;;;;;;;;;;4956776;28;20035;-51
2024/02/21 08:29:38;;;;;;;56.60;41.15;;;;;;;;;;4973049;28;20040;-50
2024/02/21 08:32:04;;;;;;;57.13;41.33;;;;;;;;;;4958332;28;20473;-52
2024/02/21 08:34:33;;;;;;;57.40;42.83;;;;;;;;;;4955110;28;20038;-52
2024/02/21 08:37:00;;;;;;;57.45;42.63;;;;;;;;;;4954830;29;20451;-51
2024/02/21 08:39:28;;;;;;;54.83;40.60;;;;;;;;;;4953696;29;20035;-53
2024/02/21 08:41:54;;;;;;;56.10;40.83;;;;;;;;;;4955001;28;20027;-50
2024/02/21 08:44:23;;;;;;;51.70;40.20;;;;;;;;;;4953678;29;20503;-55
2024/02/21 08:46:49;;;;;;;48.80;37.65;;;;;;;;;;4953515;29;20290;-52
2024/02/21 08:49:15;;;;;;;48.53;37.72;;;;;;;;;;4954719;28;20085;-55
2024/02/21 08:51:42;;;;;;;48.70;35.72;;;;;;;;;;4954814;28;20487;-50
2024/02/21 08:54:09;;;;;;;45.47;33.60;;;;;;;;;;4954686;28;20031;-55
2024/02/21 08:56:35;;;;;;;40.97;30.90;;;;;;;;;;4953302;29;20031;-56
2024/02/21 08:59:02;;;;;;;51.73;30.00;;;;;;;;;;4954524;28;20038;-49
2024/02/21 09:01:28;;;;;;;36.70;27.13;;;;;;;;;;4954657;28;20079;-54
2024/02/21 09:03:56;;;;;;;33.47;21.60;;;;;;;;;;4953203;28;20058;-51
2024/02/21 09:06:23;;;;;;;29.45;21.45;;;;;;;;;;4954315;28;20110;-52
2024/02/21 09:08:49;;;;;;;29.70;20.52;;;;;;;;;;4952085;28;20031;-51
2024/02/21 09:11:15;;;;;;;33.95;22.13;;;;;;;;;;4953525;28;20035;-53
2024/02/21 09:13:42;;;;;;;29.70;21.42;;;;;;;;;;4954346;28;20110;-52
2024/02/21 09:16:09;;;;;;;30.73;19.40;;;;;;;;;;4952875;29;20670;-49
2024/02/21 09:18:35;;;;;;;25.85;15.73;;;;;;;;;;4954067;28;20476;-50
2024/02/21 09:21:01;;;;;;;20.02;14.85;;;;;;;;;;4952940;29;20027;-51
2024/02/21 09:23:28;;;;;;;26.10;17.42;;;;;;;;;;4936903;29;20063;-51
2024/02/21 09:25:55;;;;;;;28.50;20.20;;;;;;;;;;4954072;28;20034;-49
2024/02/21 09:28:22;;;;;;;;;;;;;;;;;;4954488;28;20286;-53
2024/02/21 09:30:48;;;;;;;28.40;16.42;;;;;;;;;;4953864;28;19949;-53
2024/02/21 09:33:14;;;;;;;32.97;19.73;;;;;;;;;;4952807;29;20495;-54
2024/02/21 09:35:41;;;;;;;38.20;22.37;;;;;;;;;;4952558;29;20114;-51
2024/02/21 09:38:07;;;;;;;29.25;20.25;;;;;;;;;;4953735;28;20027;-50
2024/02/21 09:40:38;;;;;;;30.13;21.90;;;;;;;;;;4953842;28;20476;-52
2024/02/21 09:43:07;;;;;;;34.88;23.10;;;;;;;;;;4952764;29;20043;-49
2024/02/21 09:45:34;;;;;;;37.08;25.73;;;;;;;;;;4953598;28;20027;-49
2024/02/21 09:48:19;;;;;;;36.03;26.23;;;;;;;;;;4953766;28;20046;-54
2024/02/21 09:50:46;;;;;;;31.98;23.48;;;;;;;;;;4953754;28;20036;-50
2024/02/21 09:53:16;;;;;;;35.97;23.42;;;;;;;;;;4953794;28;20038;-55
2024/02/21 09:55:42;;;;;;;34.38;26.00;;;;;;;;;;4953533;28;20032;-55
2024/02/21 09:58:09;;;;;;;39.35;25.23;;;;;;;;;;4953632;28;20035;-49
2024/02/21 10:00:36;;;;;;;33.75;23.25;;;;;;;;;;4953667;28;20070;-56
2024/02/21 10:03:07;;;;;;;34.00;23.92;;;;;;;;;;4953754;28;20035;-51
2024/02/21 10:05:35;;;;;;;32.88;23.48;;;;;;;;;;4952288;29;20404;-51
2024/02/21 10:08:01;;;;;;;40.72;24.70;;;;;;;;;;4953488;28;20442;-52
2024/02/21 10:10:29;;;;;;;34.22;25.38;;;;;;;;;;4952066;29;20035;-51
2024/02/21 10:12:56;;;;;;;39.33;25.38;;;;;;;;;;4952228;29;20027;-52
2024/02/21 10:15:23;;;;;;;38.60;25.90;;;;;;;;;;4952115;29;20054;-51
2024/02/21 10:17:59;;;;;;;37.33;26.60;;;;;;;;;;4952433;28;20035;-54
2024/02/21 10:20:27;;;;;;;43.78;29.20;;;;;;;;;;4953454;28;20051;-50
2024/02/21 10:23:09;;;;;;;43.47;30.70;;;;;;;;;;4940192;29;20039;-53
2024/02/21 10:25:38;;;;;;;45.53;28.42;;;;;;;;;;4955977;29;20039;-50
2024/02/21 10:28:04;;;;;;;39.78;29.42;;;;;;;;;;4956027;28;20055;-54
2024/02/21 10:30:30;;;;;;;41.28;29.42;;;;;;;;;;4957289;28;20023;-50
2024/02/21 10:32:57;;;;;;;41.28;30.13;;;;;;;;;;4957272;28;20031;-50
2024/02/21 10:35:27;;;;;;;48.65;31.65;;;;;;;;;;4956873;28;20066;-53
2024/02/21 10:37:55;;;;;;;47.33;32.55;;;;;;;;;;4957287;28;20034;-55
2024/02/21 10:40:25;;;;;;;44.45;30.35;;;;;;;;;;4957064;28;20027;-52
2024/02/21 10:42:56;;;;;;;48.05;32.35;;;;;;;;;;4955943;29;20078;-50
2024/02/21 10:45:23;;;;;;;44.55;31.02;;;;;;;;;;4956861;28;20031;-50
2024/02/21 10:47:49;;;;;;;;;;;;;;;;;;4957299;28;20098;-51
2024/02/21 10:50:16;;;;;;;45.50;30.70;;;;;;;;;;4956743;28;20402;-49
2024/02/21 10:53:14;;;;;;;48.97;33.15;;;;;;;;;;4957084;28;20452;-53
2024/02/21 10:55:45;;;;;;;47.60;34.47;;;;;;;;;;4924538;28;20499;-50
2024/02/21 10:58:12;;;;;;;54.42;34.13;;;;;;;;;;4957307;28;20468;-50
2024/02/21 11:00:38;;;;;;;47.30;32.67;;;;;;;;;;4955339;29;20035;-50
2024/02/21 11:03:05;;;;;;;50.50;35.67;;;;;;;;;;4956727;28;20038;-52
2024/02/21 11:05:32;;;;;;;48.92;33.58;;;;;;;;;;4956683;28;20027;-50
2024/02/21 11:07:58;;;;;;;;;;;;;;;;;;4957094;28;20579;-51
2024/02/21 11:10:24;;;;;;;57.58;34.63;;;;;;;;;;4956426;28;20303;-52
2024/02/21 11:13:09;;;;;;;51.28;34.80;;;;;;;;;;4955281;29;20110;-52
2024/02/21 11:15:36;;;;;;;50.45;36.30;;;;;;;;;;4956293;28;20028;-53
2024/02/21 11:18:02;;;;;;;49.03;34.72;;;;;;;;;;4959401;28;20030;-52
2024/02/21 11:20:35;;;;;;;56.85;38.92;;;;;;;;;;4975309;28;20429;-52
2024/02/21 11:23:01;;;;;;;81.95;41.63;;;;;;;;;;4975774;28;20141;-50
2024/02/21 11:25:30;;;;;;;65.10;43.97;;;;;;;;;;4974027;28;20543;-53
2024/02/21 11:27:59;;;;;;;56.53;40.58;;;;;;;;;;4975633;28;20041;-53
2024/02/21 11:30:32;;;;;;;61.45;42.45;;;;;;;;;;4974152;28;20031;-51
2024/02/21 11:33:01;;;;;;;62.58;43.88;;;;;;;;;;4973098;28;20039;-54
2024/02/21 11:35:31;;;;;;;59.60;43.00;;;;;;;;;;4976796;28;20054;-53
2024/02/21 11:38:08;;;;;;;63.25;43.45;;;;;;;;;;4976009;28;20037;-53
2024/02/21 11:40:34;;;;;;;62.53;46.28;;;;;;;;;;4966319;28;20043;-51
2024/02/21 11:43:00;;;;;;;63.35;47.22;;;;;;;;;;4958786;28;20498;-53
2024/02/21 11:45:27;;;;;;;66.90;46.92;;;;;;;;;;4972315;28;20027;-49
2024/02/21 11:47:53;;;;;;;70.60;48.67;;;;;;;;;;4969953;28;20118;-53
2024/02/21 11:50:20;;;;;;;68.70;45.63;;;;;;;;;;4964785;28;20069;-54
2024/02/21 11:52:46;;;;;;;60.47;44.95;;;;;;;;;;4960846;28;20026;-53
2024/02/21 11:55:13;;;;;;;75.00;52.15;;;;;;;;;;4964614;28;20030;-51
2024/02/21 11:57:42;;;;;;;70.77;52.10;;;;;;;;;;4973457;28;20093;-50
2024/02/21 12:00:13;;;;;;;72.05;49.13;;;;;;;;;;4954475;28;20552;-51
2024/02/21 12:02:40;;;;;;;70.50;48.85;;;;;;;;;;4954138;28;20497;-54
2024/02/21 12:05:06;;;;;;;67.13;48.47;;;;;;;;;;4969003;28;20029;-55
2024/02/21 12:07:32;;;;;;;75.27;51.70;;;;;;;;;;4959732;28;20027;-51
2024/02/21 12:10:02;;;;;;;70.15;50.33;;;;;;;;;;4971342;28;20671;-52
2024/02/21 12:12:29;;;;;;;69.93;49.28;;;;;;;;;;4953926;28;20503;-56
2024/02/21 12:14:58;;;;;;;75.63;55.97;;;;;;;;;;4969391;28;20042;-51
2024/02/21 12:17:24;;;;;;;66.55;48.15;;;;;;;;;;4962750;28;20290;-50
2024/02/21 12:19:51;;;;;;;67.63;50.70;;;;;;;;;;4966298;28;20034;-52
2024/02/21 12:22:19;;;;;;;62.70;45.40;;;;;;;;;;4954665;28;20054;-55
2024/02/21 12:24:47;;;;;;;67.88;49.65;;;;;;;;;;4964483;28;20031;-50
2024/02/21 12:27:14;;;;;;;71.82;52.67;;;;;;;;;;4957663;28;20035;-51
2024/02/21 12:29:40;;;;;;;167.50;117.07;;;;;;;;;;4959283;28;20851;-52
2024/02/21 12:32:06;;;;;;;65.97;48.47;;;;;;;;;;4971229;28;20035;-54
2024/02/21 12:34:32;;;;;;;67.55;48.45;;;;;;;;;;4956273;28;20023;-54
2024/02/21 12:36:59;;;;;;;63.63;44.57;;;;;;;;;;4951858;28;20049;-57
2024/02/21 12:39:28;;;;;;;65.03;45.28;;;;;;;;;;4953362;28;20111;-51
2024/02/21 12:41:56;;;;;;;63.17;43.42;;;;;;;;;;4936207;28;20031;-53
2024/02/21 12:44:23;;;;;;;58.83;42.88;;;;;;;;;;4959662;28;20078;-51
2024/02/21 12:46:53;;;;;;;61.88;43.75;;;;;;;;;;4965227;28;20039;-53
2024/02/21 12:49:19;;;;;;;54.17;42.72;;;;;;;;;;4955244;28;20034;-53
2024/02/21 12:51:49;;;;;;;49.40;38.63;;;;;;;;;;4953178;28;20027;-56
2024/02/21 12:54:17;;;;;;;45.67;36.83;;;;;;;;;;4960533;28;20077;-53
2024/02/21 12:56:43;;;;;;;49.22;36.50;;;;;;;;;;4970548;28;20042;-52
2024/02/21 12:59:09;;;;;;;47.43;36.07;;;;;;;;;;4972204;28;20126;-51
2024/02/21 13:01:36;;;;;;;46.30;35.70;;;;;;;;;;4971072;28;20324;-56
2024/02/21 13:04:03;;;;;;;43.40;35.38;;;;;;;;;;4972003;28;20158;-48
2024/02/21 13:06:29;;;;;;;41.95;33.67;;;;;;;;;;4954035;28;20035;-55
2024/02/21 13:08:55;;;;;;;41.92;31.58;;;;;;;;;;4952885;29;20055;-51
2024/02/21 13:11:21;;;;;;;35.72;31.10;;;;;;;;;;4956862;28;20039;-48
2024/02/21 13:13:48;;;;;;;27.48;23.42;;;;;;;;;;4957996;28;20499;-50
2024/02/21 13:16:14;;;;;;;28.95;22.42;;;;;;;;;;4963433;28;20415;-51
2024/02/21 13:18:42;;;;;;;26.95;22.92;;;;;;;;;;4967846;28;20639;-52
2024/02/21 13:21:09;;;;;;;38.13;30.52;;;;;;;;;;4959630;28;20028;-52
2024/02/21 13:23:35;;;;;;;41.80;31.38;;;;;;;;;;4958840;28;20046;-54
2024/02/21 13:26:01;;;;;;;40.65;31.95;;;;;;;;;;4965766;28;20035;-56
2024/02/21 13:28:27;;;;;;;40.67;33.30;;;;;;;;;;4971844;28;20023;-52
2024/02/21 13:30:54;;;;;;;49.70;40.47;;;;;;;;;;4958025;28;20082;-52
2024/02/21 13:33:20;;;;;;;40.55;32.03;;;;;;;;;;4952124;29;20027;-48
2024/02/21 13:35:46;;;;;;;37.45;30.95;;;;;;;;;;4953006;29;20106;-53
2024/02/21 13:38:13;;;;;;;36.38;29.23;;;;;;;;;;4958212;28;20421;-48
2024/02/21 13:40:42;;;;;;;43.33;33.65;;;;;;;;;;4972035;28;20030;-54
2024/02/21 13:43:08;;;;;;;38.13;30.30;;;;;;;;;;4973237;28;20023;-55
2024/02/21 13:45:34;;;;;;;39.50;32.55;;;;;;;;;;4971323;28;20433;-50
2024/02/21 13:48:01;;;;;;;33.40;29.80;;;;;;;;;;4971744;28;20039;-48
2024/02/21 13:50:31;;;;;;;38.05;30.13;;;;;;;;;;4973069;28;20031;-55
2024/02/21 13:52:57;;;;;;;33.17;27.08;;;;;;;;;;4973176;28;20058;-53
2024/02/21 13:55:26;;;;;;;35.85;30.05;;;;;;;;;;4971049;28;20435;-54
2024/02/21 13:57:52;;;;;;;37.25;32.03;;;;;;;;;;4971750;28;20101;-54
2024/02/21 14:00:20;;;;;;;36.60;31.58;;;;;;;;;;4972838;28;20035;-51
2024/02/21 14:02:46;;;;;;;36.78;29.98;;;;;;;;;;4972902;28;20041;-55
2024/02/21 14:05:14;;;;;;;38.50;30.35;;;;;;;;;;4971552;28;20034;-53
2024/02/21 14:07:40;;;;;;;38.53;30.67;;;;;;;;;;4972887;28;20027;-53
2024/02/21 14:10:07;;;;;;;36.78;30.52;;;;;;;;;;4972653;28;20496;-50
2024/02/21 14:12:35;;;;;;;36.15;32.00;;;;;;;;;;4971474;28;20023;-54
2024/02/21 14:15:05;;;;;;;35.85;29.58;;;;;;;;;;4972639;28;20542;-53